sensor_id;sensor_type;location;lat;lon;timestamp;pressure;altitude;pressure_sealevel;temperature;humidity
49645;BME280;36494;50.730;-1.932;2023-04-04T00:01:32;102285.88;;;3.85;100.00
49645;BME280;36494;50.730;-1.932;2023-04-04T00:03:58;102284.11;;;3.82;100.00
49645;BME280;36494;50.730;-1.932;2023-04-04T00:06:23;102283.14;;;3.80;100.00
49645;BME280;36494;50.730;-1.932;2023-04-04T00:08:49;102280.30;;;3.76;100.00
49645;BME280;36494;50.730;-1.932;2023-04-04T00:11:14;102279.09;;;3.73;100.00
49645;BME280;36494;50.730;-1.932;2023-04-04T00:13:40;102277.50;;;3.69;100.00
49645;BME280;36494;50.730;-1.932;2023-04-04T00:16:06;102275.74;;;3.66;100.00
49645;BME280;36494;50.730;-1.932;2023-04-04T00:18:31;102273.46;;;3.63;100.00
49645;BME280;36494;50.730;-1.932;2023-04-04T00:20:56;102273.99;;;3.57;100.00
49645;BME280;36494;50.730;-1.932;2023-04-04T00:23:22;102271.95;;;3.54;100.00
49645;BME280;36494;50.730;-1.932;2023-04-04T00:25:49;102271.35;;;3.51;100.00
49645;BME280;36494;50.730;-1.932;2023-04-04T00:28:12;102271.06;;;3.48;100.00
49645;BME280;36494;50.730;-1.932;2023-04-04T00:30:38;102269.22;;;3.44;100.00
49645;BME280;36494;50.730;-1.932;2023-04-04T02:29:30;102227.89;;;2.18;100.00
49645;BME280;36494;50.730;-1.932;2023-04-04T02:31:52;102227.88;;;2.17;100.00
49645;BME280;36494;50.730;-1.932;2023-04-04T02:39:16;102232.70;;;2.10;100.00
49645;BME280;36494;50.730;-1.932;2023-04-04T02:41:33;102230.02;;;2.06;100.00
49645;BME280;36494;50.730;-1.932;2023-04-04T02:44:00;102232.04;;;2.03;100.00
49645;BME280;36494;50.730;-1.932;2023-04-04T02:46:24;102230.96;;;2.00;100.00
49645;BME280;36494;50.730;-1.932;2023-04-04T02:48:50;102232.14;;;1.97;100.00
49645;BME280;36494;50.730;-1.932;2023-04-04T02:51:15;102231.70;;;1.95;100.00
49645;BME280;36494;50.730;-1.932;2023-04-04T02:53:41;102229.24;;;1.91;100.00
49645;BME280;36494;50.730;-1.932;2023-04-04T02:56:07;102230.51;;;1.89;100.00
49645;BME280;36494;50.730;-1.932;2023-04-04T02:58:32;102228.12;;;1.86;100.00
49645;BME280;36494;50.730;-1.932;2023-04-04T03:00:57;102221.53;;;1.86;100.00
49645;BME280;36494;50.730;-1.932;2023-04-04T03:03:23;102219.29;;;1.84;100.00
49645;BME280;36494;50.730;-1.932;2023-04-04T03:05:48;102213.76;;;1.82;100.00
49645;BME280;36494;50.730;-1.932;2023-04-04T03:08:13;102213.96;;;1.81;100.00
49645;BME280;36494;50.730;-1.932;2023-04-04T03:10:38;102215.57;;;1.78;100.00
49645;BME280;36494;50.730;-1.932;2023-04-04T03:13:04;102218.21;;;1.78;100.00
49645;BME280;36494;50.730;-1.932;2023-04-04T03:15:30;102220.41;;;1.76;100.00
49645;BME280;36494;50.730;-1.932;2023-04-04T03:17:55;102218.85;;;1.74;100.00
49645;BME280;36494;50.730;-1.932;2023-04-04T03:20:21;102216.25;;;1.73;100.00
49645;BME280;36494;50.730;-1.932;2023-04-04T03:22:46;102213.17;;;1.69;100.00
49645;BME280;36494;50.730;-1.932;2023-04-04T03:25:12;102218.21;;;1.68;100.00
49645;BME280;36494;50.730;-1.932;2023-04-04T03:27:37;102217.66;;;1.66;100.00
49645;BME280;36494;50.730;-1.932;2023-04-04T03:30:03;102216.75;;;1.65;100.00
49645;BME280;36494;50.730;-1.932;2023-04-04T03:32:33;102212.61;;;1.63;100.00
49645;BME280;36494;50.730;-1.932;2023-04-04T03:34:53;102210.12;;;1.62;100.00
49645;BME280;36494;50.730;-1.932;2023-04-04T03:37:19;102209.15;;;1.60;100.00
49645;BME280;36494;50.730;-1.932;2023-04-04T03:39:44;102211.50;;;1.59;100.00
49645;BME280;36494;50.730;-1.932;2023-04-04T03:42:10;102208.73;;;1.57;100.00
49645;BME280;36494;50.730;-1.932;2023-04-04T03:44:38;102212.23;;;1.56;100.00
49645;BME280;36494;50.730;-1.932;2023-04-04T03:47:01;102213.92;;;1.52;100.00
49645;BME280;36494;50.730;-1.932;2023-04-04T03:49:26;102213.04;;;1.49;100.00
49645;BME280;36494;50.730;-1.932;2023-04-04T03:51:52;102210.97;;;1.47;100.00
49645;BME280;36494;50.730;-1.932;2023-04-04T03:54:17;102210.09;;;1.46;100.00
49645;BME280;36494;50.730;-1.932;2023-04-04T03:56:43;102208.29;;;1.45;100.00
49645;BME280;36494;50.730;-1.932;2023-04-04T03:59:08;102209.38;;;1.43;100.00
49645;BME280;36494;50.730;-1.932;2023-04-04T04:01:36;102212.45;;;1.40;100.00
49645;BME280;36494;50.730;-1.932;2023-04-04T04:04:02;102213.42;;;1.39;100.00
49645;BME280;36494;50.730;-1.932;2023-04-04T04:06:29;102213.53;;;1.36;100.00
49645;BME280;36494;50.730;-1.932;2023-04-04T04:08:52;102213.11;;;1.36;100.00
49645;BME280;36494;50.730;-1.932;2023-04-04T04:11:18;102210.75;;;1.32;100.00
49645;BME280;36494;50.730;-1.932;2023-04-04T04:18:50;102216.27;;;1.29;100.00
49645;BME280;36494;50.730;-1.932;2023-04-04T04:20:58;102218.35;;;1.27;100.00
49645;BME280;36494;50.730;-1.932;2023-04-04T04:23:27;102215.65;;;1.26;100.00
49645;BME280;36494;50.730;-1.932;2023-04-04T04:25:48;102215.66;;;1.24;100.00
49645;BME280;36494;50.730;-1.932;2023-04-04T04:28:18;102218.86;;;1.22;100.00
49645;BME280;36494;50.730;-1.932;2023-04-04T04:33:08;102218.27;;;1.19;100.00
49645;BME280;36494;50.730;-1.932;2023-04-04T04:35:35;102214.53;;;1.18;100.00
49645;BME280;36494;50.730;-1.932;2023-04-04T04:37:56;102214.31;;;1.17;100.00
49645;BME280;36494;50.730;-1.932;2023-04-04T04:42:47;102212.32;;;1.13;100.00
49645;BME280;36494;50.730;-1.932;2023-04-04T04:45:14;102210.70;;;1.12;100.00
49645;BME280;36494;50.730;-1.932;2023-04-04T04:52:29;102212.93;;;1.06;100.00
49645;BME280;36494;50.730;-1.932;2023-04-04T04:54:54;102211.24;;;1.03;100.00
49645;BME280;36494;50.730;-1.932;2023-04-04T04:57:20;102209.89;;;1.01;100.00
49645;BME280;36494;50.730;-1.932;2023-04-04T04:59:44;102207.96;;;0.99;100.00
49645;BME280;36494;50.730;-1.932;2023-04-04T05:02:10;102205.66;;;0.97;100.00
49645;BME280;36494;50.730;-1.932;2023-04-04T05:04:35;102207.28;;;0.93;100.00
49645;BME280;36494;50.730;-1.932;2023-04-04T05:07:01;102205.88;;;0.93;100.00
49645;BME280;36494;50.730;-1.932;2023-04-04T05:09:27;102205.73;;;0.91;100.00
49645;BME280;36494;50.730;-1.932;2023-04-04T05:11:52;102206.98;;;0.88;100.00
49645;BME280;36494;50.730;-1.932;2023-04-04T05:14:18;102208.38;;;0.87;100.00
49645;BME280;36494;50.730;-1.932;2023-04-04T05:16:43;102209.38;;;0.85;100.00
49645;BME280;36494;50.730;-1.932;2023-04-04T05:19:08;102212.51;;;0.83;100.00
49645;BME280;36494;50.730;-1.932;2023-04-04T05:21:34;102209.90;;;0.81;100.00
49645;BME280;36494;50.730;-1.932;2023-04-04T05:24:00;102204.98;;;0.80;100.00
49645;BME280;36494;50.730;-1.932;2023-04-04T05:26:25;102204.12;;;0.78;100.00
49645;BME280;36494;50.730;-1.932;2023-04-04T05:28:51;102204.46;;;0.75;100.00
49645;BME280;36494;50.730;-1.932;2023-04-04T05:31:16;102204.25;;;0.73;100.00
49645;BME280;36494;50.730;-1.932;2023-04-04T05:33:42;102204.74;;;0.71;100.00
49645;BME280;36494;50.730;-1.932;2023-04-04T05:36:07;102204.19;;;0.69;100.00
49645;BME280;36494;50.730;-1.932;2023-04-04T05:38:32;102207.59;;;0.67;100.00
49645;BME280;36494;50.730;-1.932;2023-04-04T05:40:58;102210.42;;;0.65;100.00
49645;BME280;36494;50.730;-1.932;2023-04-04T07:06:00;102271.02;;;1.05;100.00
49645;BME280;36494;50.730;-1.932;2023-04-04T07:08:23;102274.64;;;1.06;100.00
49645;BME280;36494;50.730;-1.932;2023-04-04T07:10:44;102276.06;;;1.11;100.00
49645;BME280;36494;50.730;-1.932;2023-04-04T07:13:06;102273.52;;;1.15;100.00
49645;BME280;36494;50.730;-1.932;2023-04-04T07:15:32;102272.45;;;1.18;100.00
49645;BME280;36494;50.730;-1.932;2023-04-04T07:17:58;102271.82;;;1.24;100.00
49645;BME280;36494;50.730;-1.932;2023-04-04T07:20:23;102273.07;;;1.28;100.00
49645;BME280;36494;50.730;-1.932;2023-04-04T07:22:48;102271.66;;;1.33;100.00
49645;BME280;36494;50.730;-1.932;2023-04-04T07:25:13;102268.94;;;1.42;100.00
49645;BME280;36494;50.730;-1.932;2023-04-04T07:27:39;102270.00;;;1.47;100.00
49645;BME280;36494;50.730;-1.932;2023-04-04T07:30:05;102267.13;;;1.51;100.00
49645;BME280;36494;50.730;-1.932;2023-04-04T07:32:30;102266.38;;;1.60;100.00
49645;BME280;36494;50.730;-1.932;2023-04-04T07:34:55;102261.67;;;1.69;100.00
49645;BME280;36494;50.730;-1.932;2023-04-04T07:37:21;102254.84;;;1.75;100.00
49645;BME280;36494;50.730;-1.932;2023-04-04T07:39:46;102252.26;;;1.81;100.00
49645;BME280;36494;50.730;-1.932;2023-04-04T07:42:11;102252.97;;;1.91;100.00
49645;BME280;36494;50.730;-1.932;2023-04-04T07:44:37;102251.25;;;1.97;100.00
49645;BME280;36494;50.730;-1.932;2023-04-04T07:47:02;102246.26;;;2.06;100.00
49645;BME280;36494;50.730;-1.932;2023-04-04T07:49:28;102244.62;;;2.22;100.00
49645;BME280;36494;50.730;-1.932;2023-04-04T07:51:53;102243.13;;;2.29;100.00
49645;BME280;36494;50.730;-1.932;2023-04-04T07:54:19;102241.87;;;2.38;100.00
49645;BME280;36494;50.730;-1.932;2023-04-04T07:56:44;102242.49;;;2.41;100.00
49645;BME280;36494;50.730;-1.932;2023-04-04T07:59:10;102241.00;;;2.46;100.00
49645;BME280;36494;50.730;-1.932;2023-04-04T08:01:35;102237.45;;;2.56;100.00
49645;BME280;36494;50.730;-1.932;2023-04-04T08:04:00;102235.92;;;2.61;100.00
49645;BME280;36494;50.730;-1.932;2023-04-04T08:06:26;102234.48;;;2.69;100.00
49645;BME280;36494;50.730;-1.932;2023-04-04T08:08:52;102228.55;;;2.86;100.00
49645;BME280;36494;50.730;-1.932;2023-04-04T08:11:17;102223.82;;;2.99;100.00
49645;BME280;36494;50.730;-1.932;2023-04-04T08:13:42;102217.75;;;3.18;100.00
49645;BME280;36494;50.730;-1.932;2023-04-04T08:16:07;102215.96;;;3.29;100.00
49645;BME280;36494;50.730;-1.932;2023-04-04T08:18:33;102213.78;;;3.54;100.00
49645;BME280;36494;50.730;-1.932;2023-04-04T08:20:58;102211.14;;;3.68;100.00
49645;BME280;36494;50.730;-1.932;2023-04-04T08:23:24;102204.72;;;3.82;100.00
49645;BME280;36494;50.730;-1.932;2023-04-04T08:25:49;102199.31;;;3.97;100.00
49645;BME280;36494;50.730;-1.932;2023-04-04T08:28:14;102197.94;;;4.25;100.00
49645;BME280;36494;50.730;-1.932;2023-04-04T08:30:39;102195.99;;;4.34;100.00
49645;BME280;36494;50.730;-1.932;2023-04-04T08:33:05;102194.64;;;4.54;100.00
49645;BME280;36494;50.730;-1.932;2023-04-04T08:35:30;102193.23;;;4.78;100.00
49645;BME280;36494;50.730;-1.932;2023-04-04T08:37:56;102187.69;;;5.04;100.00
49645;BME280;36494;50.730;-1.932;2023-04-04T08:40:22;102184.35;;;5.21;100.00
49645;BME280;36494;50.730;-1.932;2023-04-04T08:42:47;102182.92;;;5.39;100.00
49645;BME280;36494;50.730;-1.932;2023-04-04T08:45:16;102179.06;;;5.57;100.00
49645;BME280;36494;50.730;-1.932;2023-04-04T08:47:38;102181.80;;;5.84;100.00
49645;BME280;36494;50.730;-1.932;2023-04-04T08:50:06;102184.20;;;5.89;100.00
49645;BME280;36494;50.730;-1.932;2023-04-04T08:52:30;102182.42;;;6.04;100.00
49645;BME280;36494;50.730;-1.932;2023-04-04T08:54:55;102190.27;;;6.13;100.00
49645;BME280;36494;50.730;-1.932;2023-04-04T08:57:20;102185.11;;;6.24;100.00
49645;BME280;36494;50.730;-1.932;2023-04-04T08:59:46;102189.83;;;6.39;100.00
49645;BME280;36494;50.730;-1.932;2023-04-04T09:02:16;102187.55;;;6.48;100.00
49645;BME280;36494;50.730;-1.932;2023-04-04T09:04:38;102191.12;;;6.54;100.00
49645;BME280;36494;50.730;-1.932;2023-04-04T09:07:03;102189.01;;;6.63;100.00
49645;BME280;36494;50.730;-1.932;2023-04-04T09:09:28;102192.02;;;6.69;100.00
49645;BME280;36494;50.730;-1.932;2023-04-04T09:11:53;102192.20;;;6.77;100.00
49645;BME280;36494;50.730;-1.932;2023-04-04T09:14:19;102195.98;;;6.84;100.00
49645;BME280;36494;50.730;-1.932;2023-04-04T09:16:43;102202.03;;;6.95;100.00
49645;BME280;36494;50.730;-1.932;2023-04-04T09:19:08;102201.19;;;7.08;100.00
49645;BME280;36494;50.730;-1.932;2023-04-04T09:21:33;102203.05;;;7.18;100.00
49645;BME280;36494;50.730;-1.932;2023-04-04T09:23:59;102204.05;;;7.20;100.00
49645;BME280;36494;50.730;-1.932;2023-04-04T09:26:23;102205.80;;;7.37;100.00
49645;BME280;36494;50.730;-1.932;2023-04-04T09:28:51;102214.55;;;7.38;100.00
49645;BME280;36494;50.730;-1.932;2023-04-04T09:31:14;102216.14;;;7.50;100.00
49645;BME280;36494;50.730;-1.932;2023-04-04T09:33:39;102218.17;;;7.62;100.00
49645;BME280;36494;50.730;-1.932;2023-04-04T09:36:06;102221.55;;;7.63;100.00
49645;BME280;36494;50.730;-1.932;2023-04-04T09:38:30;102224.53;;;7.73;100.00
49645;BME280;36494;50.730;-1.932;2023-04-04T09:40:56;102217.62;;;7.86;100.00
49645;BME280;36494;50.730;-1.932;2023-04-04T09:43:21;102212.15;;;7.93;100.00
49645;BME280;36494;50.730;-1.932;2023-04-04T09:45:48;102206.58;;;7.93;100.00
49645;BME280;36494;50.730;-1.932;2023-04-04T09:48:11;102211.27;;;8.04;100.00
49645;BME280;36494;50.730;-1.932;2023-04-04T09:50:44;102211.42;;;8.17;100.00
49645;BME280;36494;50.730;-1.932;2023-04-04T09:53:02;102213.25;;;8.19;100.00
49645;BME280;36494;50.730;-1.932;2023-04-04T09:55:31;102222.61;;;8.23;100.00
49645;BME280;36494;50.730;-1.932;2023-04-04T09:57:52;102226.28;;;8.33;100.00
49645;BME280;36494;50.730;-1.932;2023-04-04T10:00:19;102229.27;;;8.36;100.00
49645;BME280;36494;50.730;-1.932;2023-04-04T10:02:46;102233.85;;;8.47;100.00
49645;BME280;36494;50.730;-1.932;2023-04-04T10:05:09;102238.29;;;8.57;100.00
49645;BME280;36494;50.730;-1.932;2023-04-04T10:07:37;102239.24;;;8.56;100.00
49645;BME280;36494;50.730;-1.932;2023-04-04T10:10:00;102236.39;;;8.75;100.00
49645;BME280;36494;50.730;-1.932;2023-04-04T10:12:24;102235.48;;;8.92;100.00
49645;BME280;36494;50.730;-1.932;2023-04-04T10:14:55;102231.24;;;8.99;100.00
49645;BME280;36494;50.730;-1.932;2023-04-04T10:17:15;102233.87;;;9.08;100.00
49645;BME280;36494;50.730;-1.932;2023-04-04T10:19:40;102235.24;;;9.15;100.00
49645;BME280;36494;50.730;-1.932;2023-04-04T10:22:06;102234.81;;;9.42;100.00
49645;BME280;36494;50.730;-1.932;2023-04-04T10:24:31;102238.52;;;9.64;100.00
49645;BME280;36494;50.730;-1.932;2023-04-04T10:26:56;102236.75;;;9.94;100.00
49645;BME280;36494;50.730;-1.932;2023-04-04T10:29:22;102237.44;;;10.10;100.00
49645;BME280;36494;50.730;-1.932;2023-04-04T10:31:51;102238.78;;;10.22;100.00
49645;BME280;36494;50.730;-1.932;2023-04-04T10:34:19;102237.08;;;10.50;100.00
49645;BME280;36494;50.730;-1.932;2023-04-04T10:36:43;102236.12;;;10.29;100.00
49645;BME280;36494;50.730;-1.932;2023-04-04T10:39:12;102233.86;;;10.26;100.00
49645;BME280;36494;50.730;-1.932;2023-04-04T10:41:30;102234.57;;;10.29;100.00
49645;BME280;36494;50.730;-1.932;2023-04-04T10:43:56;102227.96;;;10.23;100.00
49645;BME280;36494;50.730;-1.932;2023-04-04T10:46:21;102228.92;;;10.16;100.00
49645;BME280;36494;50.730;-1.932;2023-04-04T10:48:46;102232.77;;;10.21;100.00
49645;BME280;36494;50.730;-1.932;2023-04-04T10:51:12;102233.17;;;10.27;100.00
49645;BME280;36494;50.730;-1.932;2023-04-04T10:53:37;102229.40;;;10.55;100.00
49645;BME280;36494;50.730;-1.932;2023-04-04T10:56:02;102227.48;;;10.63;100.00
49645;BME280;36494;50.730;-1.932;2023-04-04T10:58:27;102233.42;;;10.94;100.00
49645;BME280;36494;50.730;-1.932;2023-04-04T11:00:55;102234.72;;;11.05;100.00
49645;BME280;36494;50.730;-1.932;2023-04-04T11:03:18;102231.75;;;10.81;100.00
49645;BME280;36494;50.730;-1.932;2023-04-04T11:05:44;102227.04;;;11.25;100.00
49645;BME280;36494;50.730;-1.932;2023-04-04T11:08:10;102227.94;;;11.35;100.00
49645;BME280;36494;50.730;-1.932;2023-04-04T11:10:36;102230.68;;;11.33;100.00
49645;BME280;36494;50.730;-1.932;2023-04-04T11:13:02;102228.77;;;11.32;100.00
49645;BME280;36494;50.730;-1.932;2023-04-04T11:15:26;102230.04;;;11.21;100.00
49645;BME280;36494;50.730;-1.932;2023-04-04T11:17:57;102229.01;;;11.47;100.00
49645;BME280;36494;50.730;-1.932;2023-04-04T11:20:19;102232.27;;;12.07;100.00
49645;BME280;36494;50.730;-1.932;2023-04-04T11:22:43;102231.67;;;12.32;100.00
49645;BME280;36494;50.730;-1.932;2023-04-04T11:25:25;102230.59;;;12.59;100.00
49645;BME280;36494;50.730;-1.932;2023-04-04T11:27:34;102231.24;;;11.96;100.00
49645;BME280;36494;50.730;-1.932;2023-04-04T11:30:09;102233.25;;;12.30;100.00
49645;BME280;36494;50.730;-1.932;2023-04-04T11:32:41;102233.26;;;12.18;100.00
49645;BME280;36494;50.730;-1.932;2023-04-04T11:34:50;102232.24;;;11.67;100.00
49645;BME280;36494;50.730;-1.932;2023-04-04T11:37:16;102231.25;;;12.22;100.00
49645;BME280;36494;50.730;-1.932;2023-04-04T11:39:46;102232.49;;;12.35;100.00
49645;BME280;36494;50.730;-1.932;2023-04-04T11:42:10;102233.64;;;12.75;100.00
49645;BME280;36494;50.730;-1.932;2023-04-04T11:44:38;102226.26;;;12.73;100.00
49645;BME280;36494;50.730;-1.932;2023-04-04T11:47:01;102229.44;;;12.83;100.00
49645;BME280;36494;50.730;-1.932;2023-04-04T11:49:25;102229.09;;;12.87;100.00
49645;BME280;36494;50.730;-1.932;2023-04-04T11:51:49;102231.51;;;12.32;100.00
49645;BME280;36494;50.730;-1.932;2023-04-04T11:54:15;102233.44;;;12.15;100.00
49645;BME280;36494;50.730;-1.932;2023-04-04T11:56:41;102229.65;;;11.93;100.00
49645;BME280;36494;50.730;-1.932;2023-04-04T11:59:05;102233.66;;;12.19;100.00
49645;BME280;36494;50.730;-1.932;2023-04-04T12:01:30;102232.31;;;12.56;100.00
49645;BME280;36494;50.730;-1.932;2023-04-04T12:03:58;102232.64;;;11.97;100.00
49645;BME280;36494;50.730;-1.932;2023-04-04T12:06:21;102231.02;;;12.00;100.00
49645;BME280;36494;50.730;-1.932;2023-04-04T12:08:46;102230.01;;;11.91;100.00
49645;BME280;36494;50.730;-1.932;2023-04-04T12:11:14;102234.67;;;12.33;100.00
49645;BME280;36494;50.730;-1.932;2023-04-04T12:13:41;102230.61;;;12.06;100.00
49645;BME280;36494;50.730;-1.932;2023-04-04T12:16:02;102227.02;;;12.18;100.00
49645;BME280;36494;50.730;-1.932;2023-04-04T12:18:28;102226.56;;;12.48;100.00
49645;BME280;36494;50.730;-1.932;2023-04-04T12:20:53;102221.91;;;12.29;100.00
49645;BME280;36494;50.730;-1.932;2023-04-04T12:23:18;102217.19;;;12.96;100.00
49645;BME280;36494;50.730;-1.932;2023-04-04T12:25:44;102219.30;;;12.50;100.00
49645;BME280;36494;50.730;-1.932;2023-04-04T12:28:09;102214.82;;;12.47;100.00
49645;BME280;36494;50.730;-1.932;2023-04-04T12:30:34;102213.55;;;12.62;100.00
49645;BME280;36494;50.730;-1.932;2023-04-04T12:32:59;102208.42;;;13.14;100.00
49645;BME280;36494;50.730;-1.932;2023-04-04T12:35:24;102207.39;;;12.41;100.00
49645;BME280;36494;50.730;-1.932;2023-04-04T12:37:59;102198.27;;;12.91;100.00
49645;BME280;36494;50.730;-1.932;2023-04-04T12:40:15;102198.35;;;12.44;100.00
49645;BME280;36494;50.730;-1.932;2023-04-04T12:42:40;102204.27;;;12.26;100.00
49645;BME280;36494;50.730;-1.932;2023-04-04T12:45:07;102209.76;;;12.39;100.00
49645;BME280;36494;50.730;-1.932;2023-04-04T12:47:32;102202.18;;;11.73;100.00
49645;BME280;36494;50.730;-1.932;2023-04-04T12:49:57;102193.17;;;12.05;100.00
49645;BME280;36494;50.730;-1.932;2023-04-04T12:52:27;102188.23;;;12.12;100.00
49645;BME280;36494;50.730;-1.932;2023-04-04T12:54:49;102191.32;;;12.04;100.00
49645;BME280;36494;50.730;-1.932;2023-04-04T12:57:17;102194.84;;;12.29;100.00
49645;BME280;36494;50.730;-1.932;2023-04-04T12:59:45;102186.41;;;11.96;100.00
49645;BME280;36494;50.730;-1.932;2023-04-04T13:02:06;102181.67;;;11.54;100.00
49645;BME280;36494;50.730;-1.932;2023-04-04T13:04:30;102186.25;;;12.09;100.00
49645;BME280;36494;50.730;-1.932;2023-04-04T13:06:56;102174.79;;;11.64;100.00
49645;BME280;36494;50.730;-1.932;2023-04-04T13:09:22;102175.38;;;11.70;100.00
49645;BME280;36494;50.730;-1.932;2023-04-04T13:11:55;102172.73;;;12.12;100.00
49645;BME280;36494;50.730;-1.932;2023-04-04T13:14:11;102170.24;;;11.82;100.00
49645;BME280;36494;50.730;-1.932;2023-04-04T13:16:36;102171.81;;;11.72;100.00
49645;BME280;36494;50.730;-1.932;2023-04-04T13:19:03;102167.62;;;11.36;100.00
49645;BME280;36494;50.730;-1.932;2023-04-04T13:21:27;102172.28;;;11.69;100.00
49645;BME280;36494;50.730;-1.932;2023-04-04T13:23:52;102166.58;;;12.02;100.00
49645;BME280;36494;50.730;-1.932;2023-04-04T13:26:18;102154.71;;;12.41;100.00
49645;BME280;36494;50.730;-1.932;2023-04-04T13:28:43;102155.30;;;12.61;100.00
49645;BME280;36494;50.730;-1.932;2023-04-04T13:31:08;102154.46;;;12.47;100.00
49645;BME280;36494;50.730;-1.932;2023-04-04T13:33:34;102154.11;;;12.31;100.00
49645;BME280;36494;50.730;-1.932;2023-04-04T13:35:59;102153.49;;;12.28;100.00
49645;BME280;36494;50.730;-1.932;2023-04-04T13:38:25;102146.29;;;12.16;100.00
49645;BME280;36494;50.730;-1.932;2023-04-04T13:40:50;102143.93;;;11.68;100.00
49645;BME280;36494;50.730;-1.932;2023-04-04T13:43:16;102138.17;;;11.69;100.00
49645;BME280;36494;50.730;-1.932;2023-04-04T13:45:41;102132.60;;;11.95;100.00
49645;BME280;36494;50.730;-1.932;2023-04-04T13:48:06;102130.93;;;12.07;100.00
49645;BME280;36494;50.730;-1.932;2023-04-04T13:50:33;102125.87;;;11.87;100.00
49645;BME280;36494;50.730;-1.932;2023-04-04T13:52:57;102122.60;;;11.57;100.00
49645;BME280;36494;50.730;-1.932;2023-04-04T13:55:22;102121.61;;;11.71;100.00
49645;BME280;36494;50.730;-1.932;2023-04-04T13:57:47;102120.21;;;11.65;100.00
49645;BME280;36494;50.730;-1.932;2023-04-04T14:00:14;102120.86;;;11.69;100.00
49645;BME280;36494;50.730;-1.932;2023-04-04T14:02:38;102114.08;;;11.45;100.00
49645;BME280;36494;50.730;-1.932;2023-04-04T14:05:04;102113.29;;;11.25;100.00
49645;BME280;36494;50.730;-1.932;2023-04-04T14:07:29;102111.91;;;11.39;100.00
49645;BME280;36494;50.730;-1.932;2023-04-04T14:09:54;102107.09;;;11.12;100.00
49645;BME280;36494;50.730;-1.932;2023-04-04T14:12:19;102103.64;;;11.51;100.00
49645;BME280;36494;50.730;-1.932;2023-04-04T14:14:44;102100.17;;;11.25;100.00
49645;BME280;36494;50.730;-1.932;2023-04-04T14:17:10;102109.61;;;11.48;100.00
49645;BME280;36494;50.730;-1.932;2023-04-04T14:19:37;102100.97;;;11.00;100.00
49645;BME280;36494;50.730;-1.932;2023-04-04T14:22:00;102101.40;;;11.04;100.00
49645;BME280;36494;50.730;-1.932;2023-04-04T14:24:26;102097.46;;;11.23;100.00
49645;BME280;36494;50.730;-1.932;2023-04-04T14:26:51;102091.86;;;11.19;100.00
49645;BME280;36494;50.730;-1.932;2023-04-04T14:29:16;102085.80;;;11.16;100.00
49645;BME280;36494;50.730;-1.932;2023-04-04T14:31:42;102079.91;;;11.07;100.00
49645;BME280;36494;50.730;-1.932;2023-04-04T14:34:07;102081.30;;;11.28;100.00
49645;BME280;36494;50.730;-1.932;2023-04-04T14:36:33;102079.32;;;10.95;100.00
49645;BME280;36494;50.730;-1.932;2023-04-04T14:38:58;102081.15;;;10.95;100.00
49645;BME280;36494;50.730;-1.932;2023-04-04T14:41:23;102085.69;;;11.14;100.00
49645;BME280;36494;50.730;-1.932;2023-04-04T14:43:48;102080.83;;;11.05;100.00
49645;BME280;36494;50.730;-1.932;2023-04-04T14:46:13;102080.37;;;11.15;100.00
49645;BME280;36494;50.730;-1.932;2023-04-04T14:48:39;102082.13;;;11.23;100.00
49645;BME280;36494;50.730;-1.932;2023-04-04T14:51:04;102083.34;;;10.75;100.00
49645;BME280;36494;50.730;-1.932;2023-04-04T14:53:29;102084.41;;;10.62;100.00
49645;BME280;36494;50.730;-1.932;2023-04-04T14:55:55;102082.55;;;10.66;100.00
49645;BME280;36494;50.730;-1.932;2023-04-04T14:58:19;102090.67;;;10.86;100.00
49645;BME280;36494;50.730;-1.932;2023-04-04T15:00:45;102091.62;;;10.62;100.00
49645;BME280;36494;50.730;-1.932;2023-04-04T15:03:10;102090.26;;;10.83;100.00
49645;BME280;36494;50.730;-1.932;2023-04-04T15:05:35;102086.79;;;10.99;100.00
49645;BME280;36494;50.730;-1.932;2023-04-04T15:08:01;102084.62;;;10.96;100.00
49645;BME280;36494;50.730;-1.932;2023-04-04T15:10:26;102085.25;;;11.08;100.00
49645;BME280;36494;50.730;-1.932;2023-04-04T15:12:51;102087.27;;;11.32;100.00
49645;BME280;36494;50.730;-1.932;2023-04-04T15:15:17;102087.25;;;11.41;100.00
49645;BME280;36494;50.730;-1.932;2023-04-04T15:27:23;102071.72;;;11.13;100.00
49645;BME280;36494;50.730;-1.932;2023-04-04T15:29:48;102066.02;;;11.05;100.00
49645;BME280;36494;50.730;-1.932;2023-04-04T15:32:14;102066.06;;;11.26;100.00
49645;BME280;36494;50.730;-1.932;2023-04-04T15:34:39;102067.14;;;11.24;100.00
49645;BME280;36494;50.730;-1.932;2023-04-04T15:37:05;102066.25;;;10.98;100.00
49645;BME280;36494;50.730;-1.932;2023-04-04T15:39:30;102061.66;;;11.11;100.00
49645;BME280;36494;50.730;-1.932;2023-04-04T15:41:56;102060.10;;;11.25;100.00
49645;BME280;36494;50.730;-1.932;2023-04-04T15:44:22;102057.84;;;10.93;100.00
49645;BME280;36494;50.730;-1.932;2023-04-04T15:46:46;102052.34;;;10.76;100.00
49645;BME280;36494;50.730;-1.932;2023-04-04T15:49:12;102055.91;;;10.67;100.00
49645;BME280;36494;50.730;-1.932;2023-04-04T15:51:37;102049.74;;;10.79;100.00
49645;BME280;36494;50.730;-1.932;2023-04-04T15:54:02;102045.78;;;10.65;100.00
49645;BME280;36494;50.730;-1.932;2023-04-04T15:56:28;102043.26;;;10.85;100.00
49645;BME280;36494;50.730;-1.932;2023-04-04T15:58:53;102045.10;;;10.52;100.00
49645;BME280;36494;50.730;-1.932;2023-04-04T16:01:18;102037.29;;;10.63;100.00
49645;BME280;36494;50.730;-1.932;2023-04-04T16:03:43;102036.23;;;10.78;100.00
49645;BME280;36494;50.730;-1.932;2023-04-04T16:06:09;102034.05;;;10.68;100.00
49645;BME280;36494;50.730;-1.932;2023-04-04T16:11:08;102038.81;;;10.49;100.00
49645;BME280;36494;50.730;-1.932;2023-04-04T16:13:26;102039.24;;;10.25;100.00
49645;BME280;36494;50.730;-1.932;2023-04-04T16:16:05;102033.65;;;10.45;100.00